| time (UTC) | temp F | wind direction | speed MPH | gust MPH | rain 1hr in | rain 24hr in | rain mn in | humidity % | barometer mb |
| 20260504050016 | 38 | 285 | 0.0 | 0.0 | 0.00 | 0.00 | 0.00 | 82 | 1013.3 |
| 20260504044513 | 38 | 285 | 0.0 | 0.0 | 0.00 | 0.00 | 0.00 | 80 | 1013.3 |
| 20260504043012 | 39 | 285 | 0.0 | 0.0 | 0.00 | 0.00 | 0.00 | 79 | 1013.2 |
| 20260504041509 | 39 | 285 | 0.0 | 0.0 | 0.00 | 0.00 | 0.00 | 77 | 1013.2 |
| 20260504040006 | 40 | 285 | 0.0 | 0.0 | 0.00 | 0.00 | 0.00 | 76 | 1013.2 |
| 20260504034505 | 41 | 285 | 0.0 | 0.0 | 0.00 | 0.00 | 0.00 | 74 | 1013.0 |
| 20260504033010 | 42 | 285 | 0.0 | 0.0 | 0.00 | 0.00 | 0.00 | 71 | 1012.9 |
| 20260504031506 | 42 | 285 | 0.0 | 0.0 | 0.00 | 0.00 | 0.00 | 66 | 1013.0 |
| 20260504030003 | 43 | 285 | 0.0 | 0.0 | 0.00 | 0.00 | 0.00 | 68 | 1012.9 |
| 20260504024506 | 43 | 285 | 0.0 | 0.0 | 0.00 | 0.00 | 0.00 | 69 | 1012.7 |
| 20260504023001 | 43 | 285 | 0.0 | 0.0 | 0.00 | 0.00 | 0.00 | 67 | 1012.8 |
| 20260504021501 | 44 | 285 | 0.0 | 0.0 | 0.00 | 0.00 | 0.00 | 66 | 1012.6 |
| 20260504020002 | 45 | 285 | 0.0 | 0.0 | 0.00 | 0.00 | 0.00 | 62 | 1012.5 |
| 20260504014600 | 45 | 285 | 0.0 | 0.0 | 0.00 | 0.00 | 0.00 | 59 | 1012.4 |
| 20260504013114 | 46 | 285 | 0.0 | 0.0 | 0.00 | 0.00 | 0.00 | 59 | 1012.4 |
| 20260504011600 | 47 | 285 | 0.0 | 0.0 | 0.00 | 0.00 | 0.00 | 53 | 1012.2 |
| 20260504004621 | 51 | 285 | 0.0 | 0.0 | 0.00 | 0.00 | 0.00 | 47 | 1012.1 |
| 20260504003102 | 53 | 285 | 0.0 | 0.0 | 0.00 | 0.00 | 0.00 | 42 | 1012.1 |
| 20260504001605 | 56 | 285 | 0.0 | 0.0 | 0.00 | 0.00 | 0.00 | 37 | 1012.0 |
| 20260503234556 | 59 | 280 | 0.0 | 0.0 | 0.00 | 0.00 | 0.00 | 33 | 1011.7 |
| 20260503233056 | 62 | 286 | 0.0 | 0.0 | 0.00 | 0.00 | 0.00 | 31 | 1011.6 |
| 20260503231557 | 63 | 277 | 0.0 | 1.0 | 0.00 | 0.00 | 0.00 | 29 | 1011.5 |
| 20260503230104 | 64 | 271 | 0.0 | 0.0 | 0.00 | 0.00 | 0.00 | 29 | 1011.5 |
| 20260503224554 | 64 | 234 | 0.0 | 1.0 | 0.00 | 0.00 | 0.00 | 28 | 1011.3 |
| 20260503223058 | 64 | 213 | 0.0 | 0.0 | 0.00 | 0.00 | 0.00 | 28 | 1011.4 |
| 20260503221556 | 64 | 343 | 0.0 | 1.0 | 0.00 | 0.00 | 0.00 | 29 | 1011.5 |
| 20260503220059 | 64 | 215 | 0.0 | 11.0 | 0.00 | 0.00 | 0.00 | 30 | 1011.5 |
| 20260503214551 | 64 | 281 | 0.0 | 2.0 | 0.00 | 0.00 | 0.00 | 30 | 1011.6 |
| 20260503213053 | 64 | 277 | 0.0 | 2.0 | 0.00 | 0.00 | 0.00 | 29 | 1011.6 |
| 20260503211600 | 63 | 23 | 0.0 | 1.0 | 0.00 | 0.00 | 0.00 | 30 | 1011.6 |
| 20260503210050 | 64 | 218 | 0.0 | 5.0 | 0.00 | 0.00 | 0.00 | 28 | 1011.6 |
| 20260503204550 | 64 | 22 | 0.0 | 4.0 | 0.00 | 0.00 | 0.00 | 28 | 1011.7 |
| 20260503203049 | 65 | 288 | 0.0 | 2.0 | 0.00 | 0.00 | 0.00 | 31 | 1011.7 |
| 20260503201547 | 64 | 138 | 0.0 | 0.0 | 0.00 | 0.00 | 0.00 | 29 | 1011.8 |
| 20260503200046 | 64 | 233 | 0.0 | 0.0 | 0.00 | 0.00 | 0.00 | 27 | 1012.1 |
| 20260503194548 | 64 | 294 | 0.0 | 6.0 | 0.00 | 0.00 | 0.00 | 28 | 1012.2 |
| 20260503193043 | 65 | 277 | 0.0 | 0.0 | 0.00 | 0.00 | 0.00 | 27 | 1012.4 |
| 20260503191540 | 64 | 261 | 0.0 | 1.0 | 0.00 | 0.00 | 0.00 | 30 | 1012.7 |
| 20260503190044 | 63 | 213 | 0.0 | 6.0 | 0.00 | 0.00 | 0.00 | 31 | 1013.1 |
| 20260503184542 | 62 | 286 | 0.0 | 1.0 | 0.00 | 0.00 | 0.00 | 31 | 1013.1 |
| 20260503183036 | 61 | 275 | 0.0 | 0.0 | 0.00 | 0.00 | 0.00 | 29 | 1013.3 |
| 20260503181536 | 61 | 313 | 0.0 | 7.0 | 0.00 | 0.00 | 0.00 | 33 | 1013.4 |
| 20260503180031 | 60 | 298 | 1.0 | 10.0 | 0.00 | 0.00 | 0.00 | 29 | 1013.5 |
| 20260503174537 | 60 | 304 | 3.0 | 13.0 | 0.00 | 0.00 | 0.00 | 32 | 1013.7 |
| 20260503173027 | 59 | 302 | 0.0 | 12.0 | 0.00 | 0.00 | 0.00 | 35 | 1013.8 |
| 20260503171525 | 59 | 259 | 0.0 | 7.0 | 0.00 | 0.00 | 0.00 | 38 | 1014.1 |
| 20260503140106 | 50 | 311 | 0.0 | 3.0 | 0.00 | 0.00 | 0.00 | 54 | 1015.4 |
| 20260503081607 | 39 | 273 | 0.0 | 0.0 | 0.00 | 0.00 | 0.00 | 73 | 1013.3 |
| 20260503071549 | 43 | 289 | 0.0 | 0.0 | 0.00 | 0.00 | 0.00 | 67 | 1012.7 |